createdAt,value
2018-10-07T00:00:54.970Z,40.30
2018-10-07T00:01:54.937Z,44.00
2018-10-07T00:02:54.899Z,42.00
2018-10-07T00:03:54.836Z,41.20
2018-10-07T00:04:54.821Z,40.50
2018-10-07T00:05:54.771Z,42.00
2018-10-07T00:06:54.745Z,41.30
2018-10-07T00:07:54.700Z,43.20
2018-10-07T00:08:54.650Z,40.90
2018-10-07T00:09:54.629Z,44.40
2018-10-07T00:10:54.577Z,42.00
2018-10-07T00:11:54.549Z,41.80
2018-10-07T00:12:54.493Z,42.50
2018-10-07T00:13:54.468Z,42.50
2018-10-07T00:14:54.455Z,44.70
2018-10-07T00:15:54.366Z,44.60
2018-10-07T00:16:54.348Z,44.60
2018-10-07T00:17:54.317Z,43.40
2018-10-07T00:18:54.292Z,45.70
2018-10-07T00:19:54.225Z,46.20
2018-10-07T00:20:54.201Z,45.50
2018-10-07T00:21:54.159Z,44.50
2018-10-07T00:22:54.107Z,47.70
2018-10-07T00:23:54.101Z,47.10
2018-10-07T00:24:54.028Z,44.50
2018-10-07T00:25:54.010Z,46.60
2018-10-07T00:26:53.972Z,47.20
2018-10-07T00:27:53.933Z,45.70
2018-10-07T00:28:53.902Z,47.00
2018-10-07T00:29:53.908Z,46.50
2018-10-07T00:30:53.791Z,45.80
2018-10-07T00:31:53.772Z,47.40
2018-10-07T00:32:53.752Z,46.40
2018-10-07T00:33:53.715Z,46.60
2018-10-07T00:34:53.659Z,50.60
2018-10-07T00:35:53.607Z,47.40
2018-10-07T00:36:53.578Z,47.70
2018-10-07T00:37:53.538Z,47.90
2018-10-07T00:38:53.516Z,49.60
2018-10-07T00:39:53.464Z,48.10
2018-10-07T00:40:53.405Z,47.80
2018-10-07T00:41:53.371Z,49.10
2018-10-07T00:42:53.327Z,51.30
2018-10-07T00:43:53.345Z,50.10
2018-10-07T00:44:53.258Z,50.30
2018-10-07T00:45:53.219Z,49.90
2018-10-07T00:46:53.203Z,50.50
2018-10-07T00:47:53.150Z,52.70
2018-10-07T00:48:53.138Z,50.50
2018-10-07T00:49:53.060Z,52.60
2018-10-07T00:50:53.030Z,53.80
2018-10-07T00:51:53.032Z,52.50
2018-10-07T00:52:52.971Z,53.90
2018-10-07T00:53:52.967Z,52.40
2018-10-07T00:54:52.874Z,55.40
2018-10-07T00:55:52.823Z,53.50
2018-10-07T00:56:52.804Z,54.60
2018-10-07T00:57:52.763Z,56.60
2018-10-07T00:58:52.744Z,56.00
2018-10-07T00:59:52.693Z,58.10
2018-10-07T01:00:52.633Z,56.20
2018-10-07T01:01:52.598Z,59.50
2018-10-07T01:02:52.573Z,58.30
2018-10-07T01:03:52.537Z,56.00
2018-10-07T01:04:52.542Z,59.90
2018-10-07T01:05:52.483Z,58.10
2018-10-07T01:06:52.431Z,60.10
2018-10-07T01:07:52.362Z,58.90
2018-10-07T01:08:52.334Z,57.30
2018-10-07T01:09:52.306Z,59.30
2018-10-07T01:10:52.267Z,58.30
2018-10-07T01:11:52.224Z,59.50
2018-10-07T01:12:52.195Z,57.70
2018-10-07T01:13:52.152Z,63.10
2018-10-07T01:14:52.127Z,59.50
2018-10-07T01:15:52.069Z,63.40
2018-10-07T01:16:52.022Z,62.50
2018-10-07T01:17:51.998Z,60.70
2018-10-07T01:18:51.961Z,57.10
2018-10-07T01:19:51.931Z,60.90
2018-10-07T01:20:51.891Z,59.50
2018-10-07T01:21:51.842Z,61.60
2018-10-07T01:22:51.787Z,61.10
2018-10-07T01:23:51.779Z,60.60
2018-10-07T01:25:01.503Z,61.60
2018-10-07T01:25:51.680Z,62.20
2018-10-07T01:26:51.615Z,62.70
2018-10-07T01:27:51.585Z,60.40
2018-10-07T01:28:51.548Z,64.90
2018-10-07T01:29:51.500Z,61.70
2018-10-07T01:30:51.507Z,61.70
2018-10-07T01:31:51.423Z,62.10
2018-10-07T01:32:51.386Z,64.20
2018-10-07T01:33:51.365Z,62.90
2018-10-07T01:34:51.319Z,63.10
2018-10-07T01:35:51.305Z,64.30
2018-10-07T01:36:51.294Z,63.30
2018-10-07T01:37:51.200Z,61.50
2018-10-07T01:38:51.190Z,63.20
2018-10-07T01:39:51.130Z,67.80
2018-10-07T01:40:51.083Z,63.30
2018-10-07T01:41:51.039Z,66.50
2018-10-07T01:42:51.040Z,66.80
2018-10-07T01:43:50.970Z,66.70
2018-10-07T01:44:50.938Z,63.70
2018-10-07T01:45:50.908Z,64.20
2018-10-07T01:46:50.862Z,68.60
2018-10-07T01:47:50.835Z,64.90
2018-10-07T01:48:50.769Z,67.00
2018-10-07T01:49:50.740Z,64.40
2018-10-07T01:50:50.709Z,66.00
2018-10-07T01:51:50.690Z,70.40
2018-10-07T01:52:50.621Z,70.30
2018-10-07T01:53:50.578Z,72.00
2018-10-07T01:54:50.551Z,73.50
2018-10-07T01:55:50.507Z,70.60
2018-10-07T01:56:50.525Z,79.90
2018-10-07T01:57:50.432Z,78.60
2018-10-07T01:58:50.392Z,77.90
2018-10-07T01:59:50.351Z,77.40
2018-10-07T02:00:50.324Z,82.10
2018-10-07T02:01:50.275Z,80.50
2018-10-07T02:02:50.246Z,81.30
2018-10-07T02:03:50.192Z,82.20
2018-10-07T02:04:50.161Z,86.80
2018-10-07T02:05:50.111Z,85.40
2018-10-07T02:06:50.088Z,88.60
2018-10-07T02:07:50.069Z,92.20
2018-10-07T02:08:49.999Z,95.90
2018-10-07T02:09:49.958Z,87.40
2018-10-07T02:11:00.014Z,96.00
2018-10-07T02:11:49.877Z,94.90
2018-10-07T02:12:49.833Z,98.30
2018-10-07T02:13:50.475Z,96.80
2018-10-07T02:14:49.762Z,96.70
2018-10-07T02:15:49.729Z,96.60
2018-10-07T02:16:49.683Z,97.40
2018-10-07T02:17:49.655Z,101.30
2018-10-07T02:18:49.624Z,105.50
2018-10-07T02:19:49.561Z,104.60
2018-10-07T02:20:49.570Z,108.60
2018-10-07T02:21:49.479Z,105.30
2018-10-07T02:22:49.439Z,107.80
2018-10-07T02:23:49.435Z,110.40
2018-10-07T02:24:49.396Z,106.50
2018-10-07T02:25:49.351Z,109.50
2018-10-07T02:26:49.297Z,109.60
2018-10-07T02:27:49.258Z,110.20
2018-10-07T02:28:49.250Z,106.30
2018-10-07T02:29:49.173Z,108.40
2018-10-07T02:30:49.167Z,111.40
2018-10-07T02:31:49.094Z,107.10
2018-10-07T02:32:49.048Z,112.10
2018-10-07T02:33:59.071Z,109.90
2018-10-07T02:34:48.967Z,112.50
2018-10-07T02:35:48.935Z,111.20
2018-10-07T02:36:48.884Z,110.40
2018-10-07T02:37:48.847Z,115.00
2018-10-07T02:38:48.827Z,118.00
2018-10-07T02:39:48.785Z,118.00
2018-10-07T02:40:48.757Z,115.30
2018-10-07T02:41:48.697Z,116.70
2018-10-07T02:42:48.669Z,115.50
2018-10-07T02:43:48.605Z,119.60
2018-10-07T02:44:48.651Z,116.60
2018-10-07T02:45:48.563Z,113.80
2018-10-07T02:46:48.521Z,116.00
2018-10-07T02:47:48.473Z,114.70
2018-10-07T02:48:48.468Z,119.30
2018-10-07T02:49:48.389Z,118.90
2018-10-07T02:50:48.365Z,115.10
2018-10-07T02:51:48.303Z,109.80
2018-10-07T02:52:48.269Z,116.40
2018-10-07T02:53:48.275Z,116.40
2018-10-07T02:54:48.194Z,118.30
2018-10-07T02:55:48.182Z,109.00
2018-10-07T02:56:48.153Z,110.80
2018-10-07T02:57:48.088Z,112.00
2018-10-07T02:58:48.027Z,106.80
2018-10-07T02:59:47.992Z,109.70
2018-10-07T03:00:47.949Z,106.10
2018-10-07T03:01:47.977Z,104.40
2018-10-07T03:02:47.869Z,102.30
2018-10-07T03:03:47.818Z,101.20
2018-10-07T03:04:47.846Z,100.90
2018-10-07T03:05:47.804Z,101.50
2018-10-07T03:06:47.771Z,101.00
2018-10-07T03:07:47.704Z,103.40
2018-10-07T03:08:47.646Z,101.60
2018-10-07T03:09:47.601Z,106.00
2018-10-07T03:10:47.548Z,102.80
2018-10-07T03:11:47.519Z,98.30
2018-10-07T03:12:47.499Z,101.60
2018-10-07T03:13:47.442Z,102.40
2018-10-07T03:14:47.399Z,103.00
2018-10-07T03:15:47.393Z,100.30
2018-10-07T03:16:47.312Z,101.00
2018-10-07T03:17:47.311Z,102.90
2018-10-07T03:18:47.251Z,103.40
2018-10-07T03:19:47.233Z,102.20
2018-10-07T03:20:47.180Z,101.60
2018-10-07T03:21:47.149Z,101.30
2018-10-07T03:22:47.115Z,97.70
2018-10-07T03:23:47.064Z,103.50
2018-10-07T03:24:47.012Z,98.00
2018-10-07T03:25:46.972Z,97.90
2018-10-07T03:26:46.951Z,101.10
2018-10-07T03:27:46.886Z,98.70
2018-10-07T03:28:46.878Z,101.90
2018-10-07T03:29:46.825Z,98.00
2018-10-07T03:30:46.782Z,97.90
2018-10-07T03:31:46.733Z,97.10
2018-10-07T03:32:46.691Z,99.80
2018-10-07T03:33:46.666Z,100.20
2018-10-07T03:34:46.613Z,97.20
2018-10-07T03:35:46.600Z,102.00
2018-10-07T03:36:46.534Z,99.90
2018-10-07T03:37:46.528Z,103.70
2018-10-07T03:38:46.486Z,103.50
2018-10-07T03:39:46.430Z,94.60
2018-10-07T03:40:46.408Z,98.10
2018-10-07T03:41:46.335Z,95.20
2018-10-07T03:42:46.293Z,95.30
2018-10-07T03:43:46.358Z,95.40
2018-10-07T03:44:46.252Z,98.20
2018-10-07T03:45:46.222Z,94.80
2018-10-07T03:46:46.188Z,95.80
2018-10-07T03:47:46.160Z,98.40
2018-10-07T03:48:46.093Z,94.60
2018-10-07T03:49:46.050Z,98.70
2018-10-07T03:50:45.991Z,92.20
2018-10-07T03:51:46.009Z,95.80
2018-10-07T03:52:45.928Z,93.70
2018-10-07T03:53:45.865Z,93.10
2018-10-07T03:54:45.824Z,93.60
2018-10-07T03:55:45.778Z,91.70
2018-10-07T03:56:45.788Z,95.10
2018-10-07T03:57:45.744Z,90.70
2018-10-07T03:58:45.744Z,92.90
2018-10-07T03:59:45.649Z,95.60
2018-10-07T04:00:45.620Z,95.30
2018-10-07T04:01:45.549Z,90.50
2018-10-07T04:02:45.512Z,88.10
2018-10-07T04:03:45.521Z,85.00
2018-10-07T04:04:45.432Z,80.20
2018-10-07T04:05:45.395Z,76.10
2018-10-07T04:06:45.361Z,74.80
2018-10-07T04:07:45.397Z,71.50
2018-10-07T04:08:45.293Z,69.60
2018-10-07T04:09:45.290Z,63.60
2018-10-07T04:10:45.199Z,63.40
2018-10-07T04:11:45.171Z,58.30
2018-10-07T04:12:45.135Z,53.30
2018-10-07T04:13:45.083Z,55.10
2018-10-07T04:14:45.078Z,52.20
2018-10-07T04:15:45.035Z,47.30
2018-10-07T04:16:44.954Z,46.20
2018-10-07T04:17:44.932Z,42.20
2018-10-07T04:18:44.892Z,40.50
2018-10-07T04:19:44.851Z,39.90
2018-10-07T04:20:44.824Z,35.70
2018-10-07T04:21:44.777Z,38.20
2018-10-07T04:22:44.724Z,34.00
2018-10-07T04:23:44.689Z,34.10
2018-10-07T04:24:44.645Z,33.50
2018-10-07T04:25:44.640Z,34.00
2018-10-07T04:26:44.577Z,34.60
2018-10-07T04:27:44.533Z,32.70
2018-10-07T04:28:44.581Z,33.10
2018-10-07T04:29:44.475Z,31.70
2018-10-07T04:30:44.422Z,29.20
2018-10-07T04:31:44.407Z,29.50
2018-10-07T04:32:44.340Z,28.30
2018-10-07T04:33:44.291Z,28.20
2018-10-07T04:34:44.264Z,28.70
2018-10-07T04:35:44.277Z,26.50
2018-10-07T04:36:44.339Z,25.80
2018-10-07T04:37:44.142Z,25.50
2018-10-07T04:38:44.124Z,26.30
2018-10-07T04:39:44.107Z,27.50
2018-10-07T04:40:44.248Z,27.50
2018-10-07T04:41:44.048Z,28.50
2018-10-07T04:42:44.015Z,28.90
2018-10-07T04:43:44.038Z,30.10
2018-10-07T04:44:43.857Z,29.40
2018-10-07T04:45:44.098Z,30.30
2018-10-07T04:46:43.779Z,31.40
2018-10-07T04:47:43.847Z,31.90
2018-10-07T04:48:43.716Z,31.80
2018-10-07T04:49:43.675Z,35.40
2018-10-07T04:50:43.726Z,33.60
2018-10-07T04:51:43.577Z,33.60
2018-10-07T04:52:43.540Z,32.90
2018-10-07T04:53:43.558Z,32.70
2018-10-07T04:54:43.460Z,32.80
2018-10-07T04:55:43.470Z,34.30
2018-10-07T04:56:43.389Z,30.90
2018-10-07T04:57:43.333Z,33.30
2018-10-07T04:58:43.325Z,35.30
2018-10-07T04:59:43.283Z,30.40
2018-10-07T05:00:43.235Z,31.90
2018-10-07T05:01:43.196Z,32.40
2018-10-07T05:02:43.140Z,32.00
2018-10-07T05:03:43.106Z,31.40
2018-10-07T05:04:43.117Z,34.90
2018-10-07T05:05:43.021Z,31.10
2018-10-07T05:06:42.993Z,29.90
2018-10-07T05:07:42.951Z,29.00
2018-10-07T05:08:42.898Z,28.20
2018-10-07T05:09:42.990Z,25.20
2018-10-07T05:10:42.850Z,22.40
2018-10-07T05:11:42.783Z,23.80
2018-10-07T05:12:42.852Z,24.60
2018-10-07T05:13:42.715Z,22.20
2018-10-07T05:14:42.677Z,22.70
2018-10-07T05:15:42.656Z,24.90
2018-10-07T05:16:42.582Z,22.10
2018-10-07T05:17:42.552Z,20.60
2018-10-07T05:18:42.500Z,20.70
2018-10-07T05:19:42.454Z,22.20
2018-10-07T05:20:42.448Z,21.70
2018-10-07T05:21:42.417Z,21.40
2018-10-07T05:22:42.377Z,21.00
2018-10-07T05:23:42.365Z,22.30
2018-10-07T05:24:42.249Z,20.90
2018-10-07T05:25:42.470Z,22.10
2018-10-07T05:26:42.235Z,21.80
2018-10-07T05:27:42.143Z,19.90
2018-10-07T05:28:42.101Z,22.30
2018-10-07T05:29:42.050Z,17.40
2018-10-07T05:30:42.015Z,18.60
2018-10-07T05:31:42.005Z,17.50
2018-10-07T05:32:41.938Z,20.40
2018-10-07T05:33:41.915Z,17.40
2018-10-07T05:34:41.863Z,17.30
2018-10-07T05:35:41.853Z,18.50
2018-10-07T05:36:41.862Z,19.30
2018-10-07T05:37:41.784Z,19.40
2018-10-07T05:38:41.802Z,19.70
2018-10-07T05:39:41.666Z,18.60
2018-10-07T05:40:41.614Z,17.70
2018-10-07T05:41:41.573Z,18.10
2018-10-07T05:42:41.542Z,16.70
2018-10-07T05:43:41.527Z,17.10
2018-10-07T05:44:41.486Z,15.90
2018-10-07T05:45:41.426Z,17.70
2018-10-07T05:46:41.395Z,17.80
2018-10-07T05:47:41.459Z,16.60
2018-10-07T05:48:41.307Z,16.60
2018-10-07T05:49:41.274Z,15.10
2018-10-07T05:50:41.231Z,16.40
2018-10-07T05:51:41.177Z,13.70
2018-10-07T05:52:41.168Z,15.10
2018-10-07T05:53:41.098Z,14.20
2018-10-07T05:54:41.069Z,13.60
2018-10-07T05:55:41.079Z,14.60
2018-10-07T05:56:40.978Z,13.00
2018-10-07T05:57:41.059Z,12.60
2018-10-07T05:58:40.916Z,13.40
2018-10-07T05:59:40.868Z,13.60
2018-10-07T06:00:40.835Z,11.30
2018-10-07T06:01:40.780Z,12.90
2018-10-07T06:02:40.748Z,10.60
2018-10-07T06:03:40.732Z,10.30
2018-10-07T06:04:40.653Z,10.30
2018-10-07T06:05:40.622Z,9.20
2018-10-07T06:06:40.574Z,9.70
2018-10-07T06:07:40.677Z,8.40
2018-10-07T06:08:40.574Z,9.40
2018-10-07T06:09:40.459Z,8.90
2018-10-07T06:10:40.401Z,10.40
2018-10-07T06:11:40.381Z,9.30
2018-10-07T06:12:40.517Z,8.80
2018-10-07T06:13:40.313Z,10.30
2018-10-07T06:14:40.280Z,7.70
2018-10-07T06:15:40.208Z,8.80
2018-10-07T06:16:40.178Z,6.90
2018-10-07T06:17:40.147Z,8.10
2018-10-07T06:18:40.123Z,8.00
2018-10-07T06:19:40.056Z,7.10
2018-10-07T06:20:40.022Z,7.90
2018-10-07T06:21:40.052Z,8.10
2018-10-07T06:22:39.971Z,8.70
2018-10-07T06:23:39.999Z,10.00
2018-10-07T06:24:39.853Z,7.80
2018-10-07T06:25:39.912Z,8.10
2018-10-07T06:26:39.861Z,8.50
2018-10-07T06:27:39.737Z,7.70
2018-10-07T06:28:39.723Z,6.70
2018-10-07T06:29:39.714Z,7.80
2018-10-07T06:30:39.607Z,7.70
2018-10-07T06:31:39.560Z,7.40
2018-10-07T06:32:39.560Z,7.40
2018-10-07T06:33:39.525Z,7.40
2018-10-07T06:34:39.470Z,7.10
2018-10-07T06:35:39.518Z,5.50
2018-10-07T06:36:39.362Z,7.50
2018-10-07T06:37:39.326Z,5.40
2018-10-07T06:38:39.286Z,7.10
2018-10-07T06:39:39.310Z,5.80
2018-10-07T06:40:39.204Z,5.80
2018-10-07T06:41:39.170Z,5.90
2018-10-07T06:42:39.141Z,6.70
2018-10-07T06:43:39.085Z,6.50
2018-10-07T06:44:39.076Z,6.50
2018-10-07T06:45:39.031Z,6.20
2018-10-07T06:46:38.979Z,7.00
2018-10-07T06:47:48.150Z,7.40
2018-10-07T06:48:38.882Z,6.00
2018-10-07T06:49:38.859Z,6.50
2018-10-07T06:50:38.821Z,6.00
2018-10-07T06:51:38.746Z,5.80
2018-10-07T06:52:38.711Z,5.50
2018-10-07T06:53:38.666Z,7.40
2018-10-07T06:54:38.658Z,6.30
2018-10-07T06:55:38.599Z,6.40
2018-10-07T06:56:38.565Z,6.40
2018-10-07T06:57:38.514Z,6.30
2018-10-07T06:58:38.504Z,5.80
2018-10-07T06:59:38.472Z,5.70
2018-10-07T07:00:38.444Z,6.50
2018-10-07T07:01:38.361Z,4.60
2018-10-07T07:02:38.325Z,6.10
2018-10-07T07:03:38.267Z,4.80
2018-10-07T07:04:38.235Z,6.40
2018-10-07T07:05:38.222Z,5.30
2018-10-07T07:06:38.225Z,5.50
2018-10-07T07:07:38.151Z,4.40
2018-10-07T07:08:38.117Z,3.70
2018-10-07T07:09:38.041Z,7.20
2018-10-07T07:10:38.067Z,5.10
2018-10-07T07:11:37.964Z,6.80
2018-10-07T07:12:37.925Z,5.70
2018-10-07T07:13:37.883Z,5.80
2018-10-07T07:14:37.884Z,5.50
2018-10-07T07:15:37.881Z,6.50
2018-10-07T07:16:37.758Z,6.10
2018-10-07T07:17:37.749Z,7.60
2018-10-07T07:18:37.683Z,4.50
2018-10-07T07:19:37.693Z,6.80
2018-10-07T07:20:37.600Z,6.20
2018-10-07T07:21:37.595Z,6.50
2018-10-07T07:22:37.517Z,6.40
2018-10-07T07:23:37.463Z,5.60
2018-10-07T07:24:37.437Z,5.50
2018-10-07T07:25:37.390Z,7.00
2018-10-07T07:26:37.395Z,5.70
2018-10-07T07:27:37.324Z,5.70
2018-10-07T07:28:37.276Z,7.10
2018-10-07T07:29:37.228Z,7.00
2018-10-07T07:30:37.183Z,8.30
2018-10-07T07:31:37.172Z,6.30
2018-10-07T07:32:37.109Z,7.70
2018-10-07T07:33:37.088Z,7.80
2018-10-07T07:34:37.032Z,6.50
2018-10-07T07:35:36.982Z,7.10
2018-10-07T07:36:36.988Z,7.00
2018-10-07T07:37:36.906Z,8.70
2018-10-07T07:38:36.862Z,7.00
2018-10-07T07:39:36.827Z,6.20
2018-10-07T07:40:36.780Z,7.20
2018-10-07T07:41:36.747Z,8.20
2018-10-07T07:42:36.747Z,7.30
2018-10-07T07:43:36.658Z,7.40
2018-10-07T07:44:36.629Z,7.60
2018-10-07T07:45:36.572Z,8.50
2018-10-07T07:46:36.567Z,7.50
2018-10-07T07:47:36.526Z,7.90
2018-10-07T07:48:36.469Z,8.60
2018-10-07T07:49:36.412Z,7.00
2018-10-07T07:50:36.393Z,7.60
2018-10-07T07:51:36.334Z,6.00
2018-10-07T07:52:36.330Z,7.00
2018-10-07T07:53:36.304Z,7.70
2018-10-07T07:54:36.225Z,6.70
2018-10-07T07:55:36.186Z,7.20
2018-10-07T07:56:36.136Z,4.90
2018-10-07T07:57:36.095Z,7.10
2018-10-07T07:58:36.083Z,7.00
2018-10-07T07:59:36.031Z,6.00
2018-10-07T08:00:35.982Z,5.80
2018-10-07T08:01:35.936Z,5.40
2018-10-07T08:02:35.915Z,5.90
2018-10-07T08:03:35.878Z,5.60
2018-10-07T08:04:35.830Z,6.10
2018-10-07T08:05:35.769Z,5.90
2018-10-07T08:06:35.734Z,7.60
2018-10-07T08:07:35.697Z,5.50
2018-10-07T08:08:35.692Z,5.60
2018-10-07T08:09:35.618Z,4.80
2018-10-07T08:10:35.566Z,5.50
2018-10-07T08:11:46.120Z,4.20
2018-10-07T08:12:35.486Z,6.20
2018-10-07T08:13:35.430Z,5.20
2018-10-07T08:14:35.440Z,5.20
2018-10-07T08:15:35.356Z,9.20
2018-10-07T08:16:35.328Z,6.30
2018-10-07T08:17:35.329Z,5.60
2018-10-07T08:18:35.234Z,5.00
2018-10-07T08:19:35.237Z,5.10
2018-10-07T08:20:35.187Z,7.10
2018-10-07T08:21:35.127Z,4.90
2018-10-07T08:22:35.085Z,6.00
2018-10-07T08:23:35.095Z,4.90
2018-10-07T08:24:35.051Z,6.80
2018-10-07T08:25:34.964Z,5.80
2018-10-07T08:26:34.936Z,5.40
2018-10-07T08:27:34.905Z,6.00
2018-10-07T08:28:34.860Z,5.20
2018-10-07T08:29:34.935Z,5.20
2018-10-07T08:30:34.803Z,5.10
2018-10-07T08:31:34.734Z,5.70
2018-10-07T08:32:34.690Z,6.00
2018-10-07T08:33:34.650Z,6.40
2018-10-07T08:34:34.634Z,5.80
2018-10-07T08:35:34.640Z,4.90
2018-10-07T08:36:34.555Z,5.50
2018-10-07T08:37:34.497Z,4.80
2018-10-07T08:38:34.458Z,6.00
2018-10-07T08:39:34.451Z,6.30
2018-10-07T08:40:34.391Z,10.10
2018-10-07T08:41:34.354Z,6.60
2018-10-07T08:42:44.785Z,7.40
2018-10-07T08:43:34.258Z,8.60
2018-10-07T08:44:34.249Z,6.90
2018-10-07T08:45:34.262Z,5.90
2018-10-07T08:46:34.148Z,8.10
2018-10-07T08:47:34.110Z,7.40
2018-10-07T08:48:34.083Z,5.50
2018-10-07T08:49:34.058Z,6.50
2018-10-07T08:50:33.992Z,6.30
2018-10-07T08:51:33.952Z,6.30
2018-10-07T08:52:33.950Z,8.00
2018-10-07T08:53:33.898Z,7.00
2018-10-07T08:54:33.870Z,7.30
2018-10-07T08:55:33.806Z,5.50
2018-10-07T08:56:33.792Z,6.30
2018-10-07T08:57:33.774Z,5.00
2018-10-07T08:58:33.691Z,5.60
2018-10-07T08:59:33.721Z,5.40
2018-10-07T09:00:33.629Z,4.70
2018-10-07T09:01:33.590Z,4.60
2018-10-07T09:02:33.546Z,4.10
2018-10-07T09:03:33.531Z,5.30
2018-10-07T09:04:33.521Z,4.30
2018-10-07T09:05:33.526Z,4.30
2018-10-07T09:06:33.408Z,4.50
2018-10-07T09:07:33.424Z,4.40
2018-10-07T09:08:33.330Z,4.60
2018-10-07T09:09:33.326Z,5.00
2018-10-07T09:10:33.258Z,4.50
2018-10-07T09:11:33.231Z,4.60
2018-10-07T09:12:43.390Z,4.20
2018-10-07T09:13:33.200Z,4.80
2018-10-07T09:14:33.109Z,4.30
2018-10-07T09:15:33.141Z,4.40
2018-10-07T09:16:33.042Z,4.10
2018-10-07T09:17:32.995Z,4.50
2018-10-07T09:18:32.982Z,5.10
2018-10-07T09:19:32.926Z,3.40
2018-10-07T09:20:32.928Z,4.50
2018-10-07T09:21:32.910Z,3.50
2018-10-07T09:22:32.963Z,2.80
2018-10-07T09:23:32.824Z,2.80
2018-10-07T09:24:32.793Z,2.70
2018-10-07T09:25:32.745Z,2.50
2018-10-07T09:26:32.683Z,3.90
2018-10-07T09:27:32.671Z,2.20
2018-10-07T09:28:32.607Z,3.20
2018-10-07T09:29:32.578Z,2.90
2018-10-07T09:30:32.557Z,2.70
2018-10-07T09:31:32.542Z,4.20
2018-10-07T09:32:32.505Z,3.00
2018-10-07T09:33:32.437Z,2.30
2018-10-07T09:34:32.399Z,1.90
2018-10-07T09:35:32.393Z,2.80
2018-10-07T09:36:32.336Z,2.30
2018-10-07T09:37:32.315Z,2.10
2018-10-07T09:38:32.247Z,2.60
2018-10-07T09:39:32.295Z,2.60
2018-10-07T09:40:32.178Z,2.50
2018-10-07T09:41:32.148Z,2.80
2018-10-07T09:42:32.131Z,4.10
2018-10-07T09:43:32.094Z,2.00
2018-10-07T09:44:32.045Z,2.30
2018-10-07T09:45:32.016Z,2.10
2018-10-07T09:46:31.986Z,2.70
2018-10-07T09:47:31.938Z,2.00
2018-10-07T09:48:31.964Z,1.80
2018-10-07T09:49:42.292Z,1.70
2018-10-07T09:50:31.813Z,1.40
2018-10-07T09:51:31.800Z,3.10
2018-10-07T09:52:31.754Z,2.60
2018-10-07T09:53:31.775Z,4.50
2018-10-07T09:54:31.699Z,4.60
2018-10-07T09:55:31.653Z,3.60
2018-10-07T09:56:31.628Z,2.00
2018-10-07T09:57:31.575Z,2.20
2018-10-07T09:58:31.552Z,1.30
2018-10-07T09:59:31.546Z,1.80
2018-10-07T10:00:31.503Z,1.60
2018-10-07T10:01:31.493Z,1.80
2018-10-07T10:02:31.446Z,2.90
2018-10-07T10:03:31.405Z,2.90
2018-10-07T10:04:31.409Z,3.00
2018-10-07T10:05:31.331Z,2.10
2018-10-07T10:06:31.303Z,1.90
2018-10-07T10:07:31.293Z,2.90
2018-10-07T10:08:31.221Z,3.10
2018-10-07T10:09:31.188Z,3.60
2018-10-07T10:10:31.192Z,2.10
2018-10-07T10:11:31.124Z,2.00
2018-10-07T10:12:31.106Z,1.80
2018-10-07T10:13:31.056Z,2.50
2018-10-07T10:14:31.019Z,2.30
2018-10-07T10:15:30.997Z,2.40
2018-10-07T10:16:30.965Z,3.40
2018-10-07T10:17:30.979Z,1.70
2018-10-07T10:18:30.879Z,2.00
2018-10-07T10:19:30.935Z,1.60
2018-10-07T10:20:30.815Z,4.60
2018-10-07T10:21:30.867Z,1.40
2018-10-07T10:22:30.786Z,1.90
2018-10-07T10:23:30.740Z,2.50
2018-10-07T10:24:30.684Z,1.50
2018-10-07T10:25:30.643Z,2.50
2018-10-07T10:26:30.640Z,1.80
2018-10-07T10:27:30.596Z,2.10
2018-10-07T10:28:30.543Z,1.30
2018-10-07T10:29:30.518Z,1.70
2018-10-07T10:30:30.501Z,2.10
2018-10-07T10:31:30.450Z,3.10
2018-10-07T10:32:30.409Z,2.30
2018-10-07T10:33:30.443Z,1.80
2018-10-07T10:34:30.338Z,2.10
2018-10-07T10:35:30.314Z,1.60
2018-10-07T10:36:40.399Z,2.20
2018-10-07T10:37:30.229Z,2.80
2018-10-07T10:38:30.329Z,2.80
2018-10-07T10:39:30.258Z,1.60
2018-10-07T10:40:30.128Z,3.10
2018-10-07T10:41:30.097Z,1.50
2018-10-07T10:42:30.071Z,1.40
2018-10-07T10:43:30.067Z,1.40
2018-10-07T10:44:30.057Z,1.20
2018-10-07T10:45:29.991Z,2.70
2018-10-07T10:46:29.936Z,1.90
2018-10-07T10:47:29.943Z,1.80
2018-10-07T10:48:29.887Z,1.80
2018-10-07T10:49:29.867Z,2.60
2018-10-07T10:50:29.823Z,1.70
2018-10-07T10:51:29.766Z,1.30
2018-10-07T10:52:29.736Z,2.40
2018-10-07T10:53:30.747Z,1.50
2018-10-07T10:54:29.688Z,2.10
2018-10-07T10:55:29.656Z,1.30
2018-10-07T10:56:29.624Z,2.00
2018-10-07T10:57:29.566Z,1.60
2018-10-07T10:58:39.688Z,1.00
2018-10-07T10:59:29.512Z,3.60
2018-10-07T11:00:29.474Z,1.30
2018-10-07T11:01:29.465Z,2.00
2018-10-07T11:02:29.407Z,2.90
2018-10-07T11:03:29.378Z,1.40
2018-10-07T11:04:29.430Z,2.30
2018-10-07T11:05:29.364Z,2.50
2018-10-07T11:06:29.282Z,2.10
2018-10-07T11:07:29.256Z,2.30
2018-10-07T11:08:29.245Z,2.10
2018-10-07T11:09:29.200Z,1.70
2018-10-07T11:10:29.156Z,2.30
2018-10-07T11:11:29.120Z,1.80
2018-10-07T11:12:29.097Z,1.40
2018-10-07T11:13:29.099Z,2.20
2018-10-07T11:14:29.056Z,1.30
2018-10-07T11:15:29.049Z,1.30
2018-10-07T11:16:28.961Z,1.80
2018-10-07T11:17:28.932Z,1.60
2018-10-07T11:18:28.904Z,2.40
2018-10-07T11:19:28.958Z,2.80
2018-10-07T11:20:28.814Z,2.50
2018-10-07T11:21:28.784Z,2.60
2018-10-07T11:22:28.756Z,1.80
2018-10-07T11:23:28.746Z,1.50
2018-10-07T11:24:28.689Z,2.00
2018-10-07T11:25:28.705Z,1.20
2018-10-07T11:26:28.620Z,1.60
2018-10-07T11:27:28.599Z,2.40
2018-10-07T11:28:28.570Z,2.30
2018-10-07T11:29:28.520Z,2.70
2018-10-07T11:30:28.507Z,1.90
2018-10-07T11:31:28.450Z,2.40
2018-10-07T11:32:28.417Z,1.80
2018-10-07T11:33:28.402Z,1.30
2018-10-07T11:34:28.390Z,1.80
2018-10-07T11:35:28.351Z,2.20
2018-10-07T11:36:28.297Z,1.50
2018-10-07T11:37:28.299Z,1.50
2018-10-07T11:38:28.237Z,1.90
2018-10-07T11:39:28.210Z,1.70
2018-10-07T11:40:28.169Z,1.80
2018-10-07T11:41:28.145Z,1.70
2018-10-07T11:42:28.107Z,1.70
2018-10-07T11:43:28.077Z,1.60
2018-10-07T11:44:28.023Z,1.80
2018-10-07T11:45:28.011Z,1.50
2018-10-07T11:46:27.958Z,3.00
2018-10-07T11:47:27.940Z,2.80
2018-10-07T11:48:27.871Z,1.60
2018-10-07T11:49:27.866Z,1.60
2018-10-07T11:50:27.824Z,1.40
2018-10-07T11:51:27.829Z,2.00
2018-10-07T11:52:27.744Z,3.50
2018-10-07T11:53:27.746Z,1.70
2018-10-07T11:54:27.697Z,1.60
2018-10-07T11:55:27.660Z,1.80
2018-10-07T11:56:27.652Z,1.30
2018-10-07T11:57:27.583Z,2.10
2018-10-07T11:58:27.559Z,3.10
2018-10-07T11:59:27.526Z,1.50
2018-10-07T12:00:27.476Z,2.10
2018-10-07T12:01:27.449Z,3.00
2018-10-07T12:02:27.451Z,2.10
2018-10-07T12:03:27.398Z,2.80
2018-10-07T12:04:27.385Z,2.00
2018-10-07T12:05:27.329Z,2.20
2018-10-07T12:06:27.313Z,2.00
2018-10-07T12:07:27.294Z,2.20
2018-10-07T12:08:27.245Z,2.20
2018-10-07T12:09:27.187Z,2.20
2018-10-07T12:10:27.163Z,2.40
2018-10-07T12:11:27.129Z,1.90
2018-10-07T12:12:27.108Z,2.70
2018-10-07T12:13:27.041Z,2.50
2018-10-07T12:14:27.013Z,1.90
2018-10-07T12:15:26.993Z,2.10
2018-10-07T12:16:27.011Z,2.40
2018-10-07T12:17:26.932Z,2.40
2018-10-07T12:18:26.895Z,3.50
2018-10-07T12:19:26.865Z,1.70
2018-10-07T12:20:26.822Z,2.00
2018-10-07T12:21:26.827Z,2.10
2018-10-07T12:22:26.775Z,2.60
2018-10-07T12:23:26.744Z,2.50
2018-10-07T12:24:26.695Z,2.70
2018-10-07T12:25:26.668Z,2.00
2018-10-07T12:26:26.651Z,1.90
2018-10-07T12:27:26.591Z,2.20
2018-10-07T12:28:26.550Z,1.90
2018-10-07T12:29:26.546Z,1.50
2018-10-07T12:30:26.497Z,1.70
2018-10-07T12:31:26.462Z,1.60
2018-10-07T12:32:26.446Z,2.80
2018-10-07T12:33:26.386Z,2.80
2018-10-07T12:34:26.372Z,2.10
2018-10-07T12:35:26.332Z,2.60
2018-10-07T12:36:26.292Z,1.50
2018-10-07T12:37:26.267Z,1.90
2018-10-07T12:38:26.216Z,1.90
2018-10-07T12:39:26.183Z,2.60
2018-10-07T12:40:26.170Z,1.80
2018-10-07T12:41:26.131Z,1.30
2018-10-07T12:42:26.099Z,1.80
2018-10-07T12:43:26.083Z,2.90
2018-10-07T12:44:26.024Z,2.00
2018-10-07T12:45:26.016Z,1.50
2018-10-07T12:46:25.951Z,1.60
2018-10-07T12:47:25.942Z,1.30
2018-10-07T12:48:25.942Z,1.40
2018-10-07T12:49:25.870Z,2.20
2018-10-07T12:50:25.820Z,1.80
2018-10-07T12:51:25.807Z,2.70
2018-10-07T12:52:25.775Z,1.40
2018-10-07T12:53:25.719Z,1.20
2018-10-07T12:54:25.847Z,2.20
2018-10-07T12:55:25.648Z,1.60
2018-10-07T12:56:25.613Z,1.30
2018-10-07T12:57:25.612Z,1.70
2018-10-07T12:58:25.577Z,1.80
2018-10-07T12:59:25.540Z,1.50
2018-10-07T13:00:25.485Z,2.30
2018-10-07T13:01:25.460Z,1.50
2018-10-07T13:02:36.646Z,1.40
2018-10-07T13:03:27.342Z,1.60